PAM4707 KIAD-KIND
Flight info
| Callsign | PAM4707 |
|---|---|
| Flight time | 1h 14m |
| Altitude | 34000 |
| Route | BUNZZ3 RAMAY Q72 HACKS PLASH SNKPT2 |
| Aircraft | B77W/H-SDE1E2E3FGHIJ2J3J4J5M1RWXY/LB1D1 |
Departure
| Time | 2026-05-07 17:17 |
|---|---|
| Airport | Washington Dulles International Airport (KIAD) |
Arrival
| Time | 2026-05-07 18:31 |
|---|---|
| Airport | Indianapolis International Airport (KIND) |
| Time | Latitude | Longitude | Altitude | Speed | Heading |
|---|---|---|---|---|---|
| 2026-05-07 16:36 | 38.94807 | -77.44740 | 305 ft | 0 kts | 15° |
| 2026-05-07 17:03 | 38.94802 | -77.44742 | 305 ft | 4 kts | 13° |
| 2026-05-07 17:03 | 38.94779 | -77.44747 | 304 ft | 4 kts | 6° |
| 2026-05-07 17:03 | 38.94752 | -77.44750 | 305 ft | 4 kts | 6° |
| 2026-05-07 17:03 | 38.94731 | -77.44751 | 304 ft | 4 kts | 341° |
| 2026-05-07 17:04 | 38.94721 | -77.44747 | 305 ft | 4 kts | 290° |
| 2026-05-07 17:04 | 38.94720 | -77.44724 | 305 ft | 4 kts | 261° |
| 2026-05-07 17:04 | 38.94724 | -77.44690 | 303 ft | 4 kts | 265° |
| 2026-05-07 17:04 | 38.94725 | -77.44671 | 303 ft | 1 kts | 270° |
| 2026-05-07 17:05 | 38.94725 | -77.44669 | 303 ft | 0 kts | 270° |
| 2026-05-07 17:10 | 38.94725 | -77.44722 | 305 ft | 17 kts | 270° |
| 2026-05-07 17:10 | 38.94727 | -77.44902 | 308 ft | 21 kts | 270° |
| 2026-05-07 17:10 | 38.94728 | -77.45088 | 305 ft | 21 kts | 270° |
| 2026-05-07 17:10 | 38.94729 | -77.45274 | 305 ft | 21 kts | 270° |
| 2026-05-07 17:11 | 38.94731 | -77.45455 | 305 ft | 19 kts | 270° |
| 2026-05-07 17:11 | 38.94728 | -77.45556 | 305 ft | 10 kts | 252° |
| 2026-05-07 17:11 | 38.94671 | -77.45607 | 308 ft | 10 kts | 191° |
| 2026-05-07 17:11 | 38.94598 | -77.45610 | 307 ft | 10 kts | 180° |
| 2026-05-07 17:12 | 38.94525 | -77.45610 | 309 ft | 10 kts | 180° |
| 2026-05-07 17:12 | 38.94453 | -77.45610 | 306 ft | 10 kts | 180° |
| 2026-05-07 17:12 | 38.94379 | -77.45610 | 308 ft | 10 kts | 180° |
| 2026-05-07 17:12 | 38.94306 | -77.45610 | 307 ft | 10 kts | 180° |
| 2026-05-07 17:13 | 38.94233 | -77.45611 | 306 ft | 10 kts | 180° |
| 2026-05-07 17:13 | 38.94160 | -77.45612 | 306 ft | 10 kts | 180° |
| 2026-05-07 17:13 | 38.94087 | -77.45613 | 306 ft | 10 kts | 180° |
| 2026-05-07 17:13 | 38.94015 | -77.45614 | 307 ft | 10 kts | 180° |
| 2026-05-07 17:14 | 38.93942 | -77.45615 | 306 ft | 10 kts | 180° |
| 2026-05-07 17:14 | 38.93869 | -77.45616 | 306 ft | 10 kts | 180° |
| 2026-05-07 17:14 | 38.93796 | -77.45617 | 307 ft | 10 kts | 180° |
| 2026-05-07 17:14 | 38.93724 | -77.45624 | 306 ft | 10 kts | 191° |
| 2026-05-07 17:15 | 38.93654 | -77.45651 | 307 ft | 10 kts | 199° |
| 2026-05-07 17:15 | 38.93585 | -77.45682 | 306 ft | 10 kts | 199° |
| 2026-05-07 17:15 | 38.93516 | -77.45712 | 305 ft | 11 kts | 199° |
| 2026-05-07 17:15 | 38.93454 | -77.45762 | 307 ft | 11 kts | 236° |
| 2026-05-07 17:16 | 38.93443 | -77.45858 | 303 ft | 11 kts | 281° |
| 2026-05-07 17:16 | 38.93465 | -77.45959 | 305 ft | 13 kts | 287° |
| 2026-05-07 17:16 | 38.93583 | -77.46359 | 308 ft | 93 kts | 291° |
| 2026-05-07 17:16 | 38.93918 | -77.47503 | 308 ft | 176 kts | 290° |
| 2026-05-07 17:17 | 38.94412 | -77.49208 | 486 ft | 219 kts | 290° |
| 2026-05-07 17:17 | 38.95090 | -77.50917 | 1554 ft | 208 kts | 297° |
| 2026-05-07 17:17 | 38.95744 | -77.52492 | 2616 ft | 197 kts | 278° |
| 2026-05-07 17:17 | 38.95673 | -77.54298 | 2899 ft | 215 kts | 255° |
| 2026-05-07 17:18 | 38.95262 | -77.56217 | 3480 ft | 227 kts | 252° |
| 2026-05-07 17:18 | 38.94727 | -77.58152 | 4263 ft | 232 kts | 250° |
| 2026-05-07 17:18 | 38.94094 | -77.60079 | 5111 ft | 236 kts | 248° |
| 2026-05-07 17:18 | 38.93381 | -77.61998 | 5956 ft | 241 kts | 245° |
| 2026-05-07 17:19 | 38.92602 | -77.63931 | 6813 ft | 245 kts | 244° |
| 2026-05-07 17:19 | 38.91791 | -77.65856 | 7718 ft | 246 kts | 243° |
| 2026-05-07 17:19 | 38.90963 | -77.67790 | 8627 ft | 248 kts | 243° |
| 2026-05-07 17:19 | 38.90130 | -77.69716 | 9633 ft | 245 kts | 242° |
| 2026-05-07 17:20 | 38.89464 | -77.71701 | 10329 ft | 250 kts | 257° |
| 2026-05-07 17:20 | 38.89196 | -77.74027 | 10640 ft | 274 kts | 261° |
| 2026-05-07 17:20 | 38.88941 | -77.76543 | 10877 ft | 302 kts | 261° |
| 2026-05-07 17:20 | 38.88658 | -77.79332 | 11166 ft | 326 kts | 261° |
| 2026-05-07 17:21 | 38.88353 | -77.82301 | 11959 ft | 336 kts | 261° |
| 2026-05-07 17:21 | 38.88047 | -77.85249 | 13047 ft | 340 kts | 261° |
| 2026-05-07 17:21 | 38.87730 | -77.88262 | 14136 ft | 342 kts | 261° |
| 2026-05-07 17:21 | 38.87468 | -77.91334 | 15079 ft | 344 kts | 268° |
| 2026-05-07 17:22 | 38.87760 | -77.94375 | 15968 ft | 353 kts | 281° |
| 2026-05-07 17:22 | 38.88590 | -77.97371 | 16987 ft | 358 kts | 287° |
| 2026-05-07 17:22 | 38.89528 | -78.00344 | 17921 ft | 363 kts | 287° |
| 2026-05-07 17:22 | 38.90485 | -78.03365 | 18769 ft | 366 kts | 287° |
| 2026-05-07 17:23 | 38.91446 | -78.06426 | 19676 ft | 367 kts | 286° |
| 2026-05-07 17:23 | 38.92382 | -78.09435 | 20579 ft | 367 kts | 286° |
| 2026-05-07 17:23 | 38.93325 | -78.12499 | 21418 ft | 370 kts | 285° |
| 2026-05-07 17:23 | 38.94270 | -78.15590 | 22227 ft | 373 kts | 285° |
| 2026-05-07 17:24 | 38.95233 | -78.18750 | 23059 ft | 376 kts | 285° |
| 2026-05-07 17:24 | 38.96081 | -78.21915 | 23771 ft | 374 kts | 278° |
| 2026-05-07 17:24 | 38.96452 | -78.25199 | 24431 ft | 371 kts | 271° |
| 2026-05-07 17:24 | 38.96651 | -78.28463 | 25101 ft | 372 kts | 270° |
| 2026-05-07 17:25 | 38.96836 | -78.31789 | 25776 ft | 373 kts | 270° |
| 2026-05-07 17:25 | 38.97026 | -78.35169 | 26412 ft | 375 kts | 270° |
| 2026-05-07 17:25 | 38.97219 | -78.38472 | 27026 ft | 377 kts | 271° |
| 2026-05-07 17:25 | 38.97421 | -78.41845 | 27608 ft | 380 kts | 271° |
| 2026-05-07 17:26 | 38.97630 | -78.45236 | 28181 ft | 382 kts | 271° |
| 2026-05-07 17:26 | 38.97843 | -78.48648 | 28719 ft | 384 kts | 271° |
| 2026-05-07 17:26 | 38.98058 | -78.52079 | 29192 ft | 387 kts | 271° |
| 2026-05-07 17:26 | 38.98275 | -78.55533 | 29671 ft | 389 kts | 271° |
| 2026-05-07 17:27 | 38.98493 | -78.58996 | 30144 ft | 389 kts | 271° |
| 2026-05-07 17:27 | 38.98709 | -78.62459 | 30573 ft | 389 kts | 270° |
| 2026-05-07 17:27 | 38.98923 | -78.65920 | 31060 ft | 387 kts | 270° |
| 2026-05-07 17:27 | 38.99136 | -78.69368 | 31482 ft | 386 kts | 270° |
| 2026-05-07 17:28 | 38.99350 | -78.72800 | 31880 ft | 386 kts | 270° |
| 2026-05-07 17:28 | 38.99559 | -78.76239 | 32316 ft | 385 kts | 270° |
| 2026-05-07 17:28 | 38.99767 | -78.79664 | 32725 ft | 383 kts | 270° |
| 2026-05-07 17:28 | 38.99973 | -78.83076 | 33131 ft | 382 kts | 270° |
| 2026-05-07 17:29 | 39.00178 | -78.86468 | 33501 ft | 381 kts | 270° |
| 2026-05-07 17:29 | 39.00381 | -78.89858 | 33853 ft | 381 kts | 270° |
| 2026-05-07 17:29 | 39.00786 | -78.96714 | 33910 ft | 384 kts | 269° |
| 2026-05-07 17:30 | 39.01188 | -79.03491 | 33932 ft | 377 kts | 270° |
| 2026-05-07 17:30 | 39.01579 | -79.10186 | 33945 ft | 375 kts | 270° |
| 2026-05-07 17:31 | 39.01965 | -79.16880 | 33950 ft | 375 kts | 270° |
| 2026-05-07 17:31 | 39.02383 | -79.23558 | 33944 ft | 375 kts | 270° |
| 2026-05-07 17:32 | 39.02825 | -79.30247 | 33968 ft | 376 kts | 270° |
| 2026-05-07 17:32 | 39.03192 | -79.35835 | 33965 ft | 378 kts | 270° |
| 2026-05-07 17:33 | 39.03705 | -79.43713 | 33957 ft | 378 kts | 270° |
| 2026-05-07 17:33 | 39.04135 | -79.50448 | 33976 ft | 378 kts | 270° |
| 2026-05-07 17:34 | 39.04560 | -79.57189 | 33982 ft | 378 kts | 270° |
| 2026-05-07 17:34 | 39.04987 | -79.64006 | 33985 ft | 378 kts | 270° |
| 2026-05-07 17:35 | 39.05398 | -79.70654 | 33985 ft | 377 kts | 270° |
| 2026-05-07 17:35 | 39.05811 | -79.77364 | 33972 ft | 375 kts | 270° |
| 2026-05-07 17:36 | 39.06218 | -79.84036 | 33978 ft | 373 kts | 270° |
| 2026-05-07 17:36 | 39.06614 | -79.90647 | 33972 ft | 373 kts | 270° |
| 2026-05-07 17:37 | 39.07011 | -79.97293 | 33975 ft | 372 kts | 270° |
| 2026-05-07 17:37 | 39.07403 | -80.03939 | 33979 ft | 373 kts | 270° |
| 2026-05-07 17:38 | 39.07793 | -80.10594 | 33975 ft | 373 kts | 270° |
| 2026-05-07 17:38 | 39.08179 | -80.17279 | 33977 ft | 375 kts | 270° |
| 2026-05-07 17:39 | 39.08564 | -80.23976 | 33974 ft | 376 kts | 270° |
| 2026-05-07 17:39 | 39.08884 | -80.29610 | 33978 ft | 376 kts | 270° |
| 2026-05-07 17:40 | 39.09250 | -80.36336 | 33971 ft | 376 kts | 269° |
| 2026-05-07 17:40 | 39.09602 | -80.43054 | 33965 ft | 376 kts | 270° |
| 2026-05-07 17:41 | 39.09951 | -80.49733 | 33968 ft | 376 kts | 269° |
| 2026-05-07 17:41 | 39.10300 | -80.56498 | 33965 ft | 376 kts | 269° |
| 2026-05-07 17:42 | 39.10641 | -80.63182 | 33968 ft | 376 kts | 270° |
| 2026-05-07 17:42 | 39.10983 | -80.69908 | 33974 ft | 377 kts | 270° |
| 2026-05-07 17:43 | 39.11321 | -80.76639 | 33977 ft | 377 kts | 270° |
| 2026-05-07 17:43 | 39.11653 | -80.83396 | 33969 ft | 378 kts | 269° |
| 2026-05-07 17:44 | 39.11984 | -80.90154 | 33983 ft | 379 kts | 269° |
| 2026-05-07 17:44 | 39.12312 | -80.96940 | 33974 ft | 380 kts | 270° |
| 2026-05-07 17:45 | 39.12656 | -81.03730 | 33975 ft | 381 kts | 271° |
| 2026-05-07 17:45 | 39.13604 | -81.10493 | 33980 ft | 386 kts | 277° |
| 2026-05-07 17:46 | 39.15093 | -81.17174 | 33994 ft | 391 kts | 282° |
| 2026-05-07 17:46 | 39.16972 | -81.23750 | 33995 ft | 391 kts | 283° |
| 2026-05-07 17:47 | 39.18865 | -81.30311 | 34004 ft | 390 kts | 283° |
| 2026-05-07 17:47 | 39.20740 | -81.36871 | 34001 ft | 390 kts | 283° |
| 2026-05-07 17:48 | 39.22603 | -81.43447 | 34008 ft | 390 kts | 283° |
| 2026-05-07 17:48 | 39.24460 | -81.50026 | 34008 ft | 391 kts | 283° |
| 2026-05-07 17:49 | 39.26315 | -81.56621 | 34008 ft | 391 kts | 283° |
| 2026-05-07 17:49 | 39.28170 | -81.63228 | 33994 ft | 392 kts | 283° |
| 2026-05-07 17:50 | 39.30022 | -81.69840 | 34003 ft | 392 kts | 283° |
| 2026-05-07 17:50 | 39.31870 | -81.76458 | 33997 ft | 392 kts | 283° |
| 2026-05-07 17:51 | 39.33711 | -81.83064 | 34000 ft | 393 kts | 283° |
| 2026-05-07 17:51 | 39.35556 | -81.89705 | 33991 ft | 393 kts | 283° |
| 2026-05-07 17:52 | 39.37396 | -81.96342 | 34003 ft | 392 kts | 283° |
| 2026-05-07 17:52 | 39.39230 | -82.02975 | 33997 ft | 392 kts | 283° |
| 2026-05-07 17:53 | 39.41060 | -82.09613 | 34002 ft | 391 kts | 283° |
| 2026-05-07 17:53 | 39.42883 | -82.16243 | 33996 ft | 391 kts | 283° |
| 2026-05-07 17:54 | 39.44703 | -82.22878 | 33992 ft | 392 kts | 283° |
| 2026-05-07 17:54 | 39.46519 | -82.29517 | 34002 ft | 392 kts | 283° |
| 2026-05-07 17:55 | 39.48338 | -82.36182 | 34010 ft | 393 kts | 283° |
| 2026-05-07 17:55 | 39.50152 | -82.42849 | 34071 ft | 394 kts | 283° |
| 2026-05-07 17:56 | 39.51971 | -82.49555 | 34025 ft | 395 kts | 283° |
| 2026-05-07 17:56 | 39.53788 | -82.56264 | 34017 ft | 395 kts | 283° |
| 2026-05-07 17:57 | 39.55296 | -82.61844 | 34032 ft | 395 kts | 283° |
| 2026-05-07 17:57 | 39.57410 | -82.69693 | 34030 ft | 395 kts | 283° |
| 2026-05-07 17:58 | 39.59209 | -82.76394 | 34031 ft | 396 kts | 283° |
| 2026-05-07 17:58 | 39.61017 | -82.83145 | 34032 ft | 397 kts | 283° |
| 2026-05-07 17:59 | 39.62827 | -82.89920 | 34028 ft | 398 kts | 283° |
| 2026-05-07 17:59 | 39.64634 | -82.96703 | 34026 ft | 398 kts | 283° |
| 2026-05-07 18:00 | 39.66440 | -83.03497 | 34034 ft | 398 kts | 283° |
| 2026-05-07 18:00 | 39.68242 | -83.10298 | 34039 ft | 399 kts | 283° |
| 2026-05-07 18:01 | 39.70043 | -83.17113 | 34028 ft | 399 kts | 283° |
| 2026-05-07 18:01 | 39.71842 | -83.23940 | 34029 ft | 400 kts | 283° |
| 2026-05-07 18:02 | 39.74527 | -83.34179 | 34032 ft | 400 kts | 283° |
| 2026-05-07 18:03 | 39.76323 | -83.41038 | 34040 ft | 400 kts | 283° |
| 2026-05-07 18:03 | 39.78113 | -83.47891 | 34039 ft | 400 kts | 283° |
| 2026-05-07 18:04 | 39.79901 | -83.54755 | 34037 ft | 401 kts | 283° |
| 2026-05-07 18:04 | 39.81671 | -83.61570 | 34041 ft | 400 kts | 283° |
| 2026-05-07 18:05 | 39.83447 | -83.68433 | 34040 ft | 400 kts | 283° |
| 2026-05-07 18:05 | 39.85219 | -83.75298 | 34029 ft | 400 kts | 283° |
| 2026-05-07 18:06 | 39.86985 | -83.82157 | 34027 ft | 400 kts | 284° |
| 2026-05-07 18:06 | 39.88744 | -83.89012 | 34033 ft | 399 kts | 284° |
| 2026-05-07 18:07 | 39.90499 | -83.95869 | 34026 ft | 399 kts | 284° |
| 2026-05-07 18:07 | 39.92248 | -84.02722 | 34029 ft | 399 kts | 284° |
| 2026-05-07 18:08 | 39.93992 | -84.09574 | 34043 ft | 398 kts | 284° |
| 2026-05-07 18:08 | 39.95729 | -84.16419 | 34052 ft | 398 kts | 284° |
| 2026-05-07 18:09 | 39.97461 | -84.23263 | 34046 ft | 397 kts | 284° |
| 2026-05-07 18:09 | 39.99184 | -84.30092 | 34051 ft | 396 kts | 284° |
| 2026-05-07 18:10 | 40.00902 | -84.36914 | 34037 ft | 396 kts | 284° |
| 2026-05-07 18:10 | 40.02565 | -84.43760 | 34033 ft | 395 kts | 283° |
| 2026-05-07 18:10 | 40.03350 | -84.47231 | 33162 ft | 406 kts | 283° |
| 2026-05-07 18:11 | 40.04139 | -84.50759 | 32422 ft | 404 kts | 283° |
| 2026-05-07 18:11 | 40.04661 | -84.53081 | 31972 ft | 400 kts | 283° |
| 2026-05-07 18:11 | 40.05705 | -84.57705 | 31037 ft | 394 kts | 283° |
| 2026-05-07 18:11 | 40.06467 | -84.61071 | 30382 ft | 390 kts | 283° |
| 2026-05-07 18:12 | 40.07231 | -84.64444 | 29677 ft | 386 kts | 283° |
| 2026-05-07 18:12 | 40.07986 | -84.67784 | 28967 ft | 382 kts | 283° |
| 2026-05-07 18:12 | 40.08732 | -84.71087 | 28321 ft | 377 kts | 283° |
| 2026-05-07 18:12 | 40.09463 | -84.74354 | 27661 ft | 372 kts | 283° |
| 2026-05-07 18:13 | 40.10180 | -84.77586 | 27001 ft | 369 kts | 282° |
| 2026-05-07 18:13 | 40.10887 | -84.80785 | 26383 ft | 365 kts | 282° |
| 2026-05-07 18:13 | 40.11586 | -84.83957 | 25765 ft | 362 kts | 282° |
| 2026-05-07 18:13 | 40.12279 | -84.87102 | 25159 ft | 359 kts | 282° |
| 2026-05-07 18:14 | 40.12966 | -84.90220 | 24559 ft | 356 kts | 282° |
| 2026-05-07 18:14 | 40.13646 | -84.93313 | 23954 ft | 354 kts | 282° |
| 2026-05-07 18:14 | 40.14325 | -84.96404 | 23312 ft | 352 kts | 282° |
| 2026-05-07 18:14 | 40.14998 | -84.99470 | 22658 ft | 350 kts | 282° |
| 2026-05-07 18:15 | 40.15664 | -85.02509 | 22062 ft | 346 kts | 282° |
| 2026-05-07 18:15 | 40.16323 | -85.05521 | 21483 ft | 343 kts | 282° |
| 2026-05-07 18:15 | 40.16974 | -85.08502 | 20913 ft | 340 kts | 282° |
| 2026-05-07 18:15 | 40.17623 | -85.11471 | 20352 ft | 338 kts | 282° |
| 2026-05-07 18:16 | 40.18264 | -85.14410 | 19802 ft | 336 kts | 282° |
| 2026-05-07 18:16 | 40.18902 | -85.17339 | 19255 ft | 334 kts | 282° |
| 2026-05-07 18:16 | 40.19535 | -85.20248 | 18718 ft | 332 kts | 283° |
| 2026-05-07 18:16 | 40.20172 | -85.23154 | 18152 ft | 331 kts | 283° |
| 2026-05-07 18:17 | 40.20804 | -85.26042 | 17535 ft | 330 kts | 283° |
| 2026-05-07 18:17 | 40.21434 | -85.28920 | 16985 ft | 328 kts | 283° |
| 2026-05-07 18:17 | 40.22057 | -85.31772 | 16464 ft | 325 kts | 283° |
| 2026-05-07 18:17 | 40.22666 | -85.34570 | 15942 ft | 323 kts | 284° |
| 2026-05-07 18:18 | 40.23120 | -85.37404 | 15392 ft | 316 kts | 272° |
| 2026-05-07 18:18 | 40.22924 | -85.40292 | 14899 ft | 315 kts | 261° |
| 2026-05-07 18:18 | 40.22263 | -85.42992 | 14410 ft | 318 kts | 248° |
| 2026-05-07 18:18 | 40.21198 | -85.45523 | 13931 ft | 318 kts | 244° |
| 2026-05-07 18:19 | 40.20083 | -85.48021 | 13420 ft | 318 kts | 244° |
| 2026-05-07 18:19 | 40.18972 | -85.50517 | 12903 ft | 317 kts | 244° |
| 2026-05-07 18:19 | 40.17875 | -85.53008 | 12418 ft | 315 kts | 244° |
| 2026-05-07 18:19 | 40.16793 | -85.55497 | 11952 ft | 315 kts | 244° |
| 2026-05-07 18:20 | 40.15717 | -85.57983 | 11688 ft | 309 kts | 244° |
| 2026-05-07 18:20 | 40.14673 | -85.60392 | 11539 ft | 300 kts | 244° |
| 2026-05-07 18:20 | 40.13659 | -85.62733 | 11321 ft | 293 kts | 244° |
| 2026-05-07 18:20 | 40.12674 | -85.65036 | 11054 ft | 289 kts | 245° |
| 2026-05-07 18:21 | 40.11701 | -85.67322 | 10798 ft | 285 kts | 244° |
| 2026-05-07 18:21 | 40.10752 | -85.69536 | 10536 ft | 281 kts | 244° |
| 2026-05-07 18:21 | 40.09791 | -85.71789 | 10259 ft | 279 kts | 244° |
| 2026-05-07 18:21 | 40.08851 | -85.73990 | 9958 ft | 277 kts | 244° |
| 2026-05-07 18:22 | 40.07912 | -85.76184 | 9640 ft | 276 kts | 244° |
| 2026-05-07 18:22 | 40.07610 | -85.76891 | 9543 ft | 275 kts | 244° |
| 2026-05-07 18:22 | 40.06056 | -85.80515 | 9072 ft | 270 kts | 244° |
| 2026-05-07 18:22 | 40.05102 | -85.82618 | 8788 ft | 268 kts | 241° |
| 2026-05-07 18:23 | 40.04100 | -85.84667 | 8533 ft | 266 kts | 241° |
| 2026-05-07 18:23 | 40.03121 | -85.86664 | 8267 ft | 264 kts | 240° |
| 2026-05-07 18:23 | 40.01985 | -85.88540 | 7985 ft | 265 kts | 231° |
| 2026-05-07 18:23 | 40.00708 | -85.90269 | 7725 ft | 265 kts | 229° |
| 2026-05-07 18:24 | 39.99411 | -85.91979 | 7476 ft | 264 kts | 229° |
| 2026-05-07 18:24 | 39.98122 | -85.93689 | 7201 ft | 264 kts | 229° |
| 2026-05-07 18:24 | 39.96842 | -85.95401 | 6935 ft | 263 kts | 229° |
| 2026-05-07 18:24 | 39.95569 | -85.97116 | 6662 ft | 263 kts | 229° |
| 2026-05-07 18:25 | 39.94306 | -85.98823 | 6423 ft | 261 kts | 231° |
| 2026-05-07 18:25 | 39.93123 | -86.00604 | 6123 ft | 260 kts | 232° |
| 2026-05-07 18:25 | 39.91902 | -86.02353 | 5879 ft | 261 kts | 229° |
| 2026-05-07 18:25 | 39.90624 | -86.04048 | 5614 ft | 261 kts | 227° |
| 2026-05-07 18:26 | 39.89838 | -86.05057 | 5466 ft | 259 kts | 227° |
| 2026-05-07 18:26 | 39.89189 | -86.05887 | 5389 ft | 257 kts | 227° |
| 2026-05-07 18:26 | 39.87917 | -86.07516 | 5185 ft | 255 kts | 227° |
| 2026-05-07 18:26 | 39.86642 | -86.09156 | 4919 ft | 259 kts | 227° |
| 2026-05-07 18:27 | 39.85351 | -86.10816 | 4569 ft | 261 kts | 227° |
| 2026-05-07 18:27 | 39.84054 | -86.12482 | 4216 ft | 264 kts | 227° |
| 2026-05-07 18:27 | 39.82733 | -86.14171 | 3851 ft | 268 kts | 227° |
| 2026-05-07 18:27 | 39.81850 | -86.15306 | 3579 ft | 270 kts | 227° |
| 2026-05-07 18:28 | 39.80513 | -86.17019 | 3207 ft | 267 kts | 227° |
| 2026-05-07 18:28 | 39.79240 | -86.18672 | 2877 ft | 250 kts | 227° |
| 2026-05-07 18:28 | 39.78015 | -86.20207 | 2548 ft | 239 kts | 227° |
| 2026-05-07 18:28 | 39.76511 | -86.22152 | 2132 ft | 220 kts | 227° |
| 2026-05-07 18:29 | 39.75791 | -86.23076 | 1938 ft | 210 kts | 227° |
| 2026-05-07 18:29 | 39.74483 | -86.24745 | 1521 ft | 188 kts | 228° |
| 2026-05-07 18:29 | 39.73595 | -86.25884 | 1277 ft | 171 kts | 226° |
| 2026-05-07 18:29 | 39.72786 | -86.26909 | 962 ft | 155 kts | 227° |
| 2026-05-07 18:30 | 39.72287 | -86.27529 | 835 ft | 148 kts | 230° |
| 2026-05-07 18:30 | 39.71563 | -86.28493 | 790 ft | 140 kts | 224° |
| 2026-05-07 18:30 | 39.70974 | -86.29238 | 790 ft | 73 kts | 224° |
| 2026-05-07 18:30 | 39.70667 | -86.29618 | 792 ft | 60 kts | 224° |
| 2026-05-07 18:31 | 39.70385 | -86.29975 | 791 ft | 55 kts | 224° |
| 2026-05-07 18:31 | 39.70177 | -86.30243 | 790 ft | 27 kts | 225° |
| 2026-05-07 18:31 | 39.70128 | -86.30364 | 790 ft | 14 kts | 280° |
| 2026-05-07 18:31 | 39.70190 | -86.30462 | 787 ft | 15 kts | 348° |
| 2026-05-07 18:32 | 39.70283 | -86.30409 | 787 ft | 15 kts | 42° |
| 2026-05-07 18:32 | 39.70360 | -86.30317 | 787 ft | 15 kts | 44° |
| 2026-05-07 18:32 | 39.70435 | -86.30221 | 787 ft | 15 kts | 44° |
| 2026-05-07 18:32 | 39.70509 | -86.30126 | 787 ft | 15 kts | 44° |
| 2026-05-07 18:33 | 39.70575 | -86.30042 | 787 ft | 0 kts | 44° |
| 2026-05-07 18:33 | 39.70579 | -86.30038 | 787 ft | 1 kts | 44° |
| 2026-05-07 18:33 | 39.70586 | -86.30029 | 787 ft | 2 kts | 44° |
| 2026-05-07 18:33 | 39.70596 | -86.30015 | 787 ft | 2 kts | 45° |
| 2026-05-07 18:34 | 39.70610 | -86.29998 | 787 ft | 3 kts | 45° |
| 2026-05-07 18:34 | 39.70627 | -86.29976 | 787 ft | 4 kts | 45° |
| 2026-05-07 18:34 | 39.70646 | -86.29951 | 787 ft | 4 kts | 45° |
| 2026-05-07 18:34 | 39.70659 | -86.29935 | 787 ft | 0 kts | 45° |
| 2026-05-07 18:36 | 39.70691 | -86.29893 | 787 ft | 15 kts | 45° |
| 2026-05-07 18:36 | 39.70768 | -86.29793 | 787 ft | 16 kts | 45° |
| 2026-05-07 18:37 | 39.70846 | -86.29693 | 787 ft | 16 kts | 45° |
| 2026-05-07 18:37 | 39.70923 | -86.29592 | 787 ft | 16 kts | 45° |
| 2026-05-07 18:37 | 39.71002 | -86.29494 | 787 ft | 16 kts | 43° |
| 2026-05-07 18:37 | 39.71089 | -86.29411 | 787 ft | 16 kts | 24° |
| 2026-05-07 18:38 | 39.71196 | -86.29388 | 787 ft | 16 kts | 358° |
| 2026-05-07 18:38 | 39.71305 | -86.29400 | 786 ft | 16 kts | 1° |
| 2026-05-07 18:38 | 39.71396 | -86.29325 | 787 ft | 16 kts | 47° |
| 2026-05-07 18:38 | 39.71468 | -86.29216 | 787 ft | 16 kts | 50° |
| 2026-05-07 18:39 | 39.71539 | -86.29108 | 787 ft | 16 kts | 40° |
| 2026-05-07 18:39 | 39.71599 | -86.29104 | 787 ft | 0 kts | 323° |
| 2026-05-07 18:40 | 39.71604 | -86.29113 | 787 ft | 8 kts | 306° |
| 2026-05-07 18:41 | 39.71643 | -86.29212 | 787 ft | 13 kts | 307° |
| 2026-05-07 18:41 | 39.71698 | -86.29303 | 786 ft | 13 kts | 330° |
| 2026-05-07 18:41 | 39.71736 | -86.29351 | 786 ft | 3 kts | 266° |
| 2026-05-07 18:41 | 39.71728 | -86.29361 | 786 ft | 0 kts | 218° |
| 2026-05-07 18:42 | 39.71716 | -86.29363 | 786 ft | 3 kts | 188° |
| 2026-05-07 18:42 | 39.71695 | -86.29366 | 786 ft | 3 kts | 186° |
| 2026-05-07 18:42 | 39.71671 | -86.29371 | 786 ft | 0 kts | 189° |